createdAt,value
2022-11-29T00:00:17.023Z,65.60
2022-11-29T00:02:38.852Z,65.55
2022-11-29T00:04:41.409Z,65.60
2022-11-29T00:06:43.386Z,66.09
2022-11-29T00:08:46.021Z,65.26
2022-11-29T00:10:48.669Z,64.52
2022-11-29T00:12:50.474Z,64.58
2022-11-29T00:14:52.228Z,64.74
2022-11-29T00:16:59.299Z,64.86
2022-11-29T00:19:01.985Z,63.93
2022-11-29T00:21:08.023Z,64.32
2022-11-29T00:23:10.632Z,64.00
2022-11-29T00:25:12.423Z,64.60
2022-11-29T00:27:14.230Z,63.90
2022-11-29T00:29:16.698Z,64.67
2022-11-29T00:31:21.175Z,64.87
2022-11-29T00:33:22.950Z,63.68
2022-11-29T00:35:25.080Z,63.56
2022-11-29T00:37:26.831Z,62.70
2022-11-29T00:39:29.001Z,63.42
2022-11-29T00:41:31.342Z,64.43
2022-11-29T00:43:33.336Z,62.87
2022-11-29T00:45:35.489Z,64.10
2022-11-29T00:47:37.463Z,64.51
2022-11-29T00:49:39.661Z,63.93
2022-11-29T00:51:41.458Z,63.97
2022-11-29T00:53:43.229Z,64.50
2022-11-29T00:55:47.885Z,65.13
2022-11-29T00:57:49.704Z,65.47
2022-11-29T00:59:51.634Z,64.27
2022-11-29T01:01:53.737Z,65.22
2022-11-29T01:03:55.506Z,64.47
2022-11-29T01:06:06.077Z,63.96
2022-11-29T01:08:08.339Z,64.08
2022-11-29T01:10:10.263Z,63.21
2022-11-29T01:12:12.220Z,63.51
2022-11-29T01:14:14.519Z,63.56
2022-11-29T01:16:16.794Z,64.19
2022-11-29T01:18:18.593Z,62.99
2022-11-29T01:20:20.910Z,64.56
2022-11-29T01:22:22.689Z,64.34
2022-11-29T01:24:24.915Z,63.17
2022-11-29T01:26:29.166Z,63.87
2022-11-29T01:28:31.631Z,63.14
2022-11-29T01:30:33.468Z,64.00
2022-11-29T01:32:36.791Z,64.23
2022-11-29T01:34:38.763Z,64.45
2022-11-29T01:36:40.640Z,65.00
2022-11-29T01:38:43.079Z,63.86
2022-11-29T01:40:45.715Z,63.25
2022-11-29T01:42:47.501Z,63.62
2022-11-29T01:44:49.626Z,63.40
2022-11-29T01:46:51.607Z,64.99
2022-11-29T01:49:00.479Z,64.36
2022-11-29T01:51:03.191Z,63.97
2022-11-29T01:53:06.971Z,63.45
2022-11-29T01:55:10.229Z,64.23
2022-11-29T01:57:13.205Z,64.24
2022-11-29T01:59:19.549Z,64.63
2022-11-29T02:01:21.607Z,65.92
2022-11-29T02:03:24.002Z,65.73
2022-11-29T02:05:26.617Z,64.99
2022-11-29T02:07:28.469Z,64.88
2022-11-29T02:09:30.674Z,65.14
2022-11-29T02:11:56.507Z,65.07
2022-11-29T02:14:22.112Z,63.92
2022-11-29T02:16:35.614Z,63.51
2022-11-29T02:18:58.794Z,63.29
2022-11-29T02:21:07.933Z,64.14
2022-11-29T02:23:41.686Z,64.01
2022-11-29T02:25:58.821Z,63.37
2022-11-29T02:28:38.428Z,62.84
2022-11-29T02:30:59.838Z,63.15
2022-11-29T02:33:25.982Z,63.18
2022-11-29T02:35:40.321Z,64.23
2022-11-29T02:38:06.724Z,65.15
2022-11-29T02:41:18.636Z,64.24
2022-11-29T02:43:34.934Z,64.35
2022-11-29T02:45:55.020Z,64.59
2022-11-29T02:48:08.450Z,63.92
2022-11-29T02:50:23.224Z,64.65
2022-11-29T02:52:46.086Z,64.33
2022-11-29T02:55:19.449Z,63.08
2022-11-29T02:57:33.818Z,63.65
2022-11-29T03:00:05.179Z,63.33
2022-11-29T03:02:14.601Z,62.53
2022-11-29T03:04:43.538Z,63.25
2022-11-29T03:06:58.973Z,64.55
2022-11-29T03:09:26.155Z,62.88
2022-11-29T03:11:59.787Z,63.33
2022-11-29T03:14:13.449Z,63.06
2022-11-29T03:16:44.119Z,64.12
2022-11-29T03:19:04.331Z,63.37
2022-11-29T03:21:19.595Z,63.27
2022-11-29T03:23:36.266Z,63.55
2022-11-29T03:26:02.555Z,63.97
2022-11-29T03:28:18.717Z,63.12
2022-11-29T03:30:21.773Z,63.43
2022-11-29T03:32:34.974Z,62.56
2022-11-29T03:35:14.780Z,63.03
2022-11-29T03:37:25.627Z,63.03
2022-11-29T03:39:41.542Z,63.67
2022-11-29T03:41:59.442Z,64.70
2022-11-29T03:44:28.367Z,64.14
2022-11-29T03:46:58.546Z,63.95
2022-11-29T03:49:07.522Z,64.75
2022-11-29T03:51:28.433Z,64.39
2022-11-29T03:53:39.174Z,63.84
2022-11-29T03:56:02.146Z,64.73
2022-11-29T03:58:27.340Z,64.24
2022-11-29T04:00:39.425Z,64.94
2022-11-29T04:03:11.600Z,63.42
2022-11-29T04:05:21.965Z,64.63
2022-11-29T04:07:42.922Z,64.58
2022-11-29T04:10:14.827Z,65.21
2022-11-29T04:12:54.739Z,64.05
2022-11-29T04:15:10.515Z,64.96
2022-11-29T04:17:53.346Z,65.81
2022-11-29T04:20:36.299Z,65.32
2022-11-29T04:22:47.858Z,64.83
2022-11-29T04:25:22.759Z,65.09
2022-11-29T04:27:28.065Z,64.53
2022-11-29T04:30:05.440Z,64.68
2022-11-29T04:32:10.613Z,64.90
2022-11-29T04:34:34.686Z,64.52
2022-11-29T04:36:55.008Z,64.53
2022-11-29T04:39:03.142Z,66.08
2022-11-29T04:41:25.822Z,65.70
2022-11-29T04:43:48.672Z,65.53
2022-11-29T04:46:02.613Z,65.44
2022-11-29T04:48:21.591Z,64.97
2022-11-29T04:50:33.796Z,65.66
2022-11-29T04:52:47.579Z,66.91
2022-11-29T04:55:00.072Z,66.15
2022-11-29T04:57:08.886Z,66.30
2022-11-29T04:59:24.878Z,65.36
2022-11-29T05:01:41.050Z,66.54
2022-11-29T05:03:57.876Z,67.25
2022-11-29T05:06:37.505Z,66.34
2022-11-29T05:09:08.509Z,66.20
2022-11-29T05:11:45.029Z,65.78
2022-11-29T05:14:04.769Z,65.85
2022-11-29T05:16:16.101Z,65.30
2022-11-29T05:18:34.620Z,65.45
2022-11-29T05:21:00.358Z,66.60
2022-11-29T05:23:31.990Z,66.93
2022-11-29T05:25:57.156Z,67.13
2022-11-29T05:28:41.190Z,66.29
2022-11-29T05:31:17.313Z,66.80
2022-11-29T05:33:43.619Z,66.41
2022-11-29T05:36:15.185Z,66.30
2022-11-29T05:38:42.277Z,65.50
2022-11-29T05:40:58.138Z,64.72
2022-11-29T05:43:27.725Z,64.66
2022-11-29T05:45:35.011Z,64.96
2022-11-29T05:47:48.976Z,66.66
2022-11-29T05:50:32.062Z,65.56
2022-11-29T05:52:42.373Z,65.76
2022-11-29T05:54:59.003Z,65.64
2022-11-29T05:57:38.198Z,64.90
2022-11-29T05:59:42.173Z,64.24
2022-11-29T06:01:58.870Z,64.46
2022-11-29T06:04:21.129Z,65.79
2022-11-29T06:06:35.052Z,64.95
2022-11-29T06:08:58.597Z,64.07
2022-11-29T06:11:14.151Z,65.51
2022-11-29T06:13:38.684Z,65.87
2022-11-29T06:16:09.208Z,66.22
2022-11-29T06:18:48.581Z,64.92
2022-11-29T06:21:16.402Z,65.85
2022-11-29T06:23:25.490Z,65.82
2022-11-29T06:26:04.136Z,66.15
2022-11-29T06:28:23.054Z,65.53
2022-11-29T06:30:30.009Z,65.89
2022-11-29T06:32:57.812Z,65.47
2022-11-29T06:35:07.203Z,64.88
2022-11-29T06:37:40.205Z,65.36
2022-11-29T06:39:42.727Z,66.82
2022-11-29T06:41:44.758Z,69.30
2022-11-29T06:43:47.483Z,67.80
2022-11-29T06:45:52.770Z,66.77
2022-11-29T06:48:09.854Z,65.84
2022-11-29T06:50:33.702Z,66.45
2022-11-29T06:52:48.997Z,67.10
2022-11-29T06:55:12.363Z,67.08
2022-11-29T06:57:46.229Z,67.33
2022-11-29T06:59:57.369Z,66.94
2022-11-29T07:02:27.980Z,67.58
2022-11-29T07:04:46.712Z,67.06
2022-11-29T07:06:48.923Z,66.57
2022-11-29T07:08:56.931Z,66.53
2022-11-29T07:11:00.519Z,67.82
2022-11-29T07:13:02.785Z,66.92
2022-11-29T07:15:05.209Z,66.78
2022-11-29T07:17:54.915Z,66.03
2022-11-29T07:19:56.662Z,65.37
2022-11-29T07:22:36.254Z,65.99
2022-11-29T07:24:47.595Z,64.74
2022-11-29T07:26:59.813Z,66.23
2022-11-29T07:29:21.901Z,66.10
2022-11-29T07:31:31.560Z,65.88
2022-11-29T07:33:42.141Z,66.46
2022-11-29T07:35:56.954Z,67.02
2022-11-29T07:38:16.812Z,66.98
2022-11-29T07:40:40.770Z,67.11
2022-11-29T07:43:15.155Z,69.26
2022-11-29T07:45:32.043Z,66.23
2022-11-29T07:47:35.916Z,64.64
2022-11-29T07:49:38.156Z,64.05
2022-11-29T07:51:40.225Z,64.95
2022-11-29T07:53:44.269Z,65.47
2022-11-29T07:55:47.020Z,65.02
2022-11-29T07:57:49.382Z,64.45
2022-11-29T07:59:51.712Z,65.05
2022-11-29T08:01:54.667Z,65.13
2022-11-29T08:03:58.077Z,65.37
2022-11-29T08:05:59.860Z,64.75
2022-11-29T08:08:01.802Z,64.59
2022-11-29T08:10:07.176Z,63.50
2022-11-29T08:12:08.955Z,65.29
2022-11-29T08:14:11.015Z,64.54
2022-11-29T08:16:17.942Z,65.85
2022-11-29T08:18:20.638Z,65.15
2022-11-29T08:20:22.811Z,63.44
2022-11-29T08:22:24.855Z,63.89
2022-11-29T08:24:26.947Z,63.49
2022-11-29T08:26:31.798Z,62.71
2022-11-29T08:28:33.741Z,63.65
2022-11-29T08:30:38.367Z,62.98
2022-11-29T08:32:41.207Z,62.96
2022-11-29T08:34:49.436Z,64.82
2022-11-29T08:36:58.460Z,64.00
2022-11-29T08:39:09.254Z,62.99
2022-11-29T08:41:15.671Z,63.17
2022-11-29T08:43:17.420Z,62.08
2022-11-29T08:45:19.661Z,62.48
2022-11-29T08:47:37.078Z,62.45
2022-11-29T08:50:00.694Z,63.42
2022-11-29T08:52:24.093Z,62.24
2022-11-29T08:54:25.688Z,61.07
2022-11-29T08:58:50.487Z,61.39
2022-11-29T09:00:52.998Z,61.24
2022-11-29T09:02:54.858Z,60.75
2022-11-29T09:04:56.963Z,60.70
2022-11-29T09:06:59.111Z,62.61
2022-11-29T09:09:01.638Z,60.90
2022-11-29T09:11:17.211Z,63.37
2022-11-29T09:13:19.607Z,60.79
2022-11-29T09:15:21.883Z,61.47
2022-11-29T09:17:24.802Z,62.22
2022-11-29T09:19:27.347Z,60.95
2022-11-29T09:21:31.354Z,62.11
2022-11-29T09:23:33.406Z,62.43
2022-11-29T09:25:35.576Z,61.96
2022-11-29T09:27:37.616Z,61.54
2022-11-29T09:29:39.491Z,61.84
2022-11-29T09:31:45.205Z,61.96
2022-11-29T09:33:48.115Z,61.63
2022-11-29T09:35:50.309Z,60.22
2022-11-29T09:37:52.483Z,60.96
2022-11-29T09:39:57.144Z,60.33
2022-11-29T09:42:31.407Z,62.88
2022-11-29T09:44:45.694Z,59.64
2022-11-29T09:47:16.295Z,58.99
2022-11-29T09:49:35.687Z,59.99
2022-11-29T09:52:04.078Z,59.79
2022-11-29T09:54:36.178Z,59.55
2022-11-29T09:56:44.247Z,60.41
2022-11-29T09:58:58.963Z,59.86
2022-11-29T10:01:05.396Z,60.75
2022-11-29T10:03:18.659Z,60.43
2022-11-29T10:05:30.309Z,60.20
2022-11-29T10:07:38.838Z,59.52
2022-11-29T10:09:49.893Z,59.34
2022-11-29T10:12:13.874Z,58.97
2022-11-29T10:14:23.068Z,58.50
2022-11-29T10:16:29.991Z,60.25
2022-11-29T10:18:38.847Z,58.93
2022-11-29T10:20:48.822Z,59.01
2022-11-29T10:23:22.534Z,59.61
2022-11-29T10:25:48.865Z,58.18
2022-11-29T10:27:52.740Z,57.37
2022-11-29T10:29:54.822Z,58.35
2022-11-29T10:31:59.334Z,58.36
2022-11-29T10:34:08.118Z,57.16
2022-11-29T10:36:19.187Z,58.51
2022-11-29T10:38:36.284Z,59.52
2022-11-29T10:40:42.080Z,57.82
2022-11-29T10:42:49.920Z,58.04
2022-11-29T10:44:51.910Z,58.18
2022-11-29T10:46:55.883Z,58.16
2022-11-29T10:49:06.366Z,59.92
2022-11-29T10:51:16.953Z,58.03
2022-11-29T10:53:23.498Z,57.54
2022-11-29T10:55:27.725Z,57.70
2022-11-29T10:57:29.832Z,57.40
2022-11-29T10:59:33.427Z,57.54
2022-11-29T11:01:42.229Z,56.00
2022-11-29T11:03:55.371Z,57.05
2022-11-29T11:06:06.122Z,58.33
2022-11-29T11:08:17.489Z,56.84
2022-11-29T11:10:27.272Z,57.86
2022-11-29T11:12:32.947Z,57.01
2022-11-29T11:14:37.737Z,57.35
2022-11-29T11:16:39.587Z,56.86
2022-11-29T11:18:41.811Z,56.51
2022-11-29T11:20:51.423Z,56.60
2022-11-29T11:23:20.647Z,56.69
2022-11-29T11:25:34.781Z,57.42
2022-11-29T11:27:42.237Z,57.55
2022-11-29T11:29:45.190Z,59.20
2022-11-29T11:31:58.168Z,58.70
2022-11-29T11:34:26.479Z,56.68
2022-11-29T11:36:28.750Z,56.53
2022-11-29T11:38:31.099Z,57.44
2022-11-29T11:40:34.614Z,56.40
2022-11-29T11:42:40.482Z,56.44
2022-11-29T11:44:49.963Z,57.30
2022-11-29T11:46:52.666Z,57.83
2022-11-29T11:48:55.026Z,56.63
2022-11-29T11:50:59.366Z,56.01
2022-11-29T11:53:06.536Z,57.62
2022-11-29T11:55:45.759Z,57.97
2022-11-29T11:58:09.034Z,56.42
2022-11-29T12:01:04.045Z,58.89
2022-11-29T12:03:28.722Z,58.98
2022-11-29T12:05:30.799Z,58.34
2022-11-29T12:08:06.829Z,58.81
2022-11-29T12:10:10.520Z,58.25
2022-11-29T12:12:23.173Z,58.39
2022-11-29T12:14:47.600Z,58.32
2022-11-29T12:16:58.916Z,58.48
2022-11-29T12:19:17.913Z,57.66
2022-11-29T12:21:27.467Z,58.00
2022-11-29T12:23:52.781Z,57.51
2022-11-29T12:26:00.333Z,57.41
2022-11-29T12:28:02.392Z,57.80
2022-11-29T12:30:12.187Z,57.86
2022-11-29T12:32:26.709Z,57.56
2022-11-29T12:34:56.377Z,58.02
2022-11-29T12:37:35.764Z,57.87
2022-11-29T12:39:50.799Z,58.11
2022-11-29T12:42:01.247Z,57.87
2022-11-29T12:44:26.839Z,57.70
2022-11-29T12:46:30.301Z,57.99
2022-11-29T12:49:00.377Z,57.87
2022-11-29T12:51:07.118Z,58.10
2022-11-29T12:53:27.118Z,57.86
2022-11-29T12:55:47.859Z,58.57
2022-11-29T12:57:59.123Z,56.84
2022-11-29T13:00:10.115Z,57.17
2022-11-29T13:02:39.562Z,57.14
2022-11-29T13:05:12.303Z,57.75
2022-11-29T13:07:28.772Z,57.61
2022-11-29T13:10:02.863Z,57.37
2022-11-29T13:12:13.110Z,56.78
2022-11-29T13:14:43.100Z,57.83
2022-11-29T13:16:58.879Z,57.68
2022-11-29T13:19:14.940Z,58.26
2022-11-29T13:21:28.267Z,57.52
2022-11-29T13:24:10.672Z,58.40
2022-11-29T13:26:13.929Z,58.16
2022-11-29T13:28:29.582Z,58.31
2022-11-29T13:30:35.019Z,57.81
2022-11-29T13:32:51.660Z,57.39
2022-11-29T13:34:58.751Z,57.92
2022-11-29T13:37:20.096Z,59.09
2022-11-29T13:39:34.654Z,59.18
2022-11-29T13:42:15.722Z,58.42
2022-11-29T13:44:33.040Z,58.19
2022-11-29T13:46:54.776Z,58.09
2022-11-29T13:48:57.187Z,59.00
2022-11-29T13:51:27.056Z,58.53
2022-11-29T13:53:48.221Z,58.63
2022-11-29T13:56:02.514Z,58.66
2022-11-29T13:58:16.642Z,57.87
2022-11-29T14:00:39.669Z,58.08
2022-11-29T14:02:42.070Z,57.88
2022-11-29T14:04:46.334Z,58.99
2022-11-29T14:06:50.245Z,58.15
2022-11-29T14:09:21.854Z,57.84
2022-11-29T14:11:13.862Z,57.95
2022-11-29T14:13:16.459Z,57.83
2022-11-29T14:15:28.355Z,57.83
2022-11-29T14:17:35.393Z,57.83
2022-11-29T14:19:37.315Z,58.75
2022-11-29T14:22:06.805Z,59.28
2022-11-29T14:24:36.825Z,58.89
2022-11-29T14:26:38.713Z,59.44
2022-11-29T14:28:41.532Z,59.92
2022-11-29T14:30:49.209Z,58.93
2022-11-29T14:33:03.986Z,59.24
2022-11-29T14:35:12.019Z,60.29
2022-11-29T14:37:31.037Z,60.41
2022-11-29T14:39:48.309Z,59.68
2022-11-29T14:42:04.779Z,60.52
2022-11-29T14:44:18.798Z,59.23
2022-11-29T14:46:29.504Z,61.03
2022-11-29T14:48:33.515Z,59.65
2022-11-29T14:50:38.204Z,60.14
2022-11-29T14:52:50.527Z,60.15
2022-11-29T14:54:59.971Z,60.10
2022-11-29T14:57:39.917Z,59.57
2022-11-29T14:59:51.686Z,59.30
2022-11-29T15:01:54.982Z,59.33
2022-11-29T15:03:57.119Z,59.71
2022-11-29T15:06:14.148Z,59.92
2022-11-29T15:08:50.196Z,59.33
2022-11-29T15:10:57.350Z,60.01
2022-11-29T15:13:00.936Z,60.04
2022-11-29T15:15:21.843Z,59.84
2022-11-29T15:17:49.296Z,60.89
2022-11-29T15:20:14.199Z,61.11
2022-11-29T15:22:23.080Z,60.38
2022-11-29T15:24:28.763Z,61.16
2022-11-29T15:26:32.243Z,61.29
2022-11-29T15:28:34.087Z,60.90
2022-11-29T15:30:39.579Z,59.62
2022-11-29T15:32:44.535Z,60.79
2022-11-29T15:34:51.826Z,60.96
2022-11-29T15:36:53.955Z,60.12
2022-11-29T15:38:59.245Z,60.14
2022-11-29T15:41:03.443Z,60.11
2022-11-29T15:43:34.686Z,58.94
2022-11-29T15:45:39.547Z,59.25
2022-11-29T15:47:41.766Z,60.16
2022-11-29T15:49:44.190Z,59.61
2022-11-29T15:51:51.459Z,60.32
2022-11-29T15:54:13.069Z,59.50
2022-11-29T15:56:22.375Z,59.09
2022-11-29T15:58:27.635Z,59.55
2022-11-29T16:00:31.608Z,59.42
2022-11-29T16:02:37.215Z,60.01
2022-11-29T16:04:46.488Z,59.47
2022-11-29T16:07:04.181Z,59.59
2022-11-29T16:09:11.931Z,59.58
2022-11-29T16:11:17.594Z,59.41
2022-11-29T16:13:31.815Z,58.99
2022-11-29T16:15:37.063Z,59.82
2022-11-29T16:17:40.498Z,58.99
2022-11-29T16:19:43.881Z,59.24
2022-11-29T16:21:45.710Z,59.64
2022-11-29T16:23:49.099Z,59.61
2022-11-29T16:25:59.190Z,59.86
2022-11-29T16:28:01.475Z,59.24
2022-11-29T16:30:05.296Z,58.23
2022-11-29T16:32:26.097Z,59.02
2022-11-29T16:34:32.104Z,59.08
2022-11-29T16:36:35.423Z,58.79
2022-11-29T16:38:38.327Z,59.42
2022-11-29T16:40:40.524Z,59.53
2022-11-29T16:42:48.911Z,58.91
2022-11-29T16:45:28.641Z,58.46
2022-11-29T16:48:00.285Z,57.85
2022-11-29T16:50:02.081Z,59.17
2022-11-29T16:52:29.304Z,59.27
2022-11-29T16:54:35.944Z,58.35
2022-11-29T16:56:39.000Z,58.98
2022-11-29T16:59:25.560Z,58.25
2022-11-29T17:01:28.795Z,58.55
2022-11-29T17:03:32.318Z,57.68
2022-11-29T17:05:35.718Z,59.13
2022-11-29T17:07:40.426Z,57.92
2022-11-29T17:09:57.055Z,60.22
2022-11-29T17:12:01.908Z,60.13
2022-11-29T17:14:04.089Z,60.28
2022-11-29T17:16:11.800Z,59.39
2022-11-29T17:18:15.024Z,60.07
2022-11-29T17:20:17.392Z,59.28
2022-11-29T17:22:19.673Z,58.79
2022-11-29T17:24:23.110Z,58.56
2022-11-29T17:26:26.871Z,58.95
2022-11-29T17:28:28.899Z,58.20
2022-11-29T17:30:32.592Z,59.33
2022-11-29T17:32:35.706Z,59.30
2022-11-29T17:34:37.510Z,60.03
2022-11-29T17:36:40.541Z,60.61
2022-11-29T17:38:44.241Z,59.76
2022-11-29T17:40:46.386Z,60.52
2022-11-29T17:42:50.673Z,59.95
2022-11-29T17:44:52.816Z,60.32
2022-11-29T17:46:58.171Z,60.09
2022-11-29T17:49:02.722Z,59.93
2022-11-29T17:51:13.542Z,59.88
2022-11-29T17:53:34.711Z,58.81
2022-11-29T17:55:42.494Z,59.78
2022-11-29T17:57:44.341Z,58.63
2022-11-29T17:59:46.763Z,58.62
2022-11-29T18:01:52.320Z,58.47
2022-11-29T18:03:58.856Z,58.08
2022-11-29T18:06:01.295Z,59.22
2022-11-29T18:08:04.362Z,59.14
2022-11-29T18:10:08.144Z,58.31
2022-11-29T18:12:10.693Z,60.19
2022-11-29T18:14:14.053Z,60.18
2022-11-29T18:16:18.976Z,59.74
2022-11-29T18:18:22.082Z,59.48
2022-11-29T18:20:23.969Z,59.38
2022-11-29T18:22:28.020Z,59.75
2022-11-29T18:24:30.203Z,59.46
2022-11-29T18:26:33.931Z,60.94
2022-11-29T18:28:38.085Z,60.02
2022-11-29T18:30:40.044Z,59.50
2022-11-29T18:32:42.732Z,59.80
2022-11-29T18:34:46.338Z,59.26
2022-11-29T18:36:49.536Z,60.14
2022-11-29T18:38:59.575Z,59.78
2022-11-29T18:41:13.873Z,58.98
2022-11-29T18:43:16.860Z,58.89
2022-11-29T18:45:18.692Z,59.40
2022-11-29T18:47:20.954Z,59.42
2022-11-29T18:49:23.449Z,59.94
2022-11-29T18:51:25.830Z,58.60
2022-11-29T18:53:27.657Z,59.52
2022-11-29T18:55:29.465Z,59.04
2022-11-29T18:57:31.609Z,59.49
2022-11-29T18:59:33.461Z,59.61
2022-11-29T19:01:41.016Z,59.62
2022-11-29T19:03:50.476Z,58.43
2022-11-29T19:05:54.388Z,58.30
2022-11-29T19:07:59.570Z,58.41
2022-11-29T19:10:03.884Z,58.55
2022-11-29T19:12:06.640Z,57.89
2022-11-29T19:14:14.114Z,58.33
2022-11-29T19:16:18.615Z,58.05
2022-11-29T19:18:21.691Z,58.29
2022-11-29T19:20:23.489Z,57.77
2022-11-29T19:22:26.071Z,57.79
2022-11-29T19:24:27.915Z,57.79
2022-11-29T19:26:31.483Z,56.88
2022-11-29T19:28:36.124Z,57.83
2022-11-29T19:30:38.115Z,56.83
2022-11-29T19:32:45.152Z,57.63
2022-11-29T19:34:50.225Z,56.70
2022-11-29T19:36:52.389Z,57.42
2022-11-29T19:38:57.780Z,57.50
2022-11-29T19:41:13.437Z,58.01
2022-11-29T19:43:15.996Z,56.97
2022-11-29T19:45:18.416Z,57.53
2022-11-29T19:47:20.810Z,57.14
2022-11-29T19:49:22.604Z,57.90
2022-11-29T19:51:27.389Z,57.80
2022-11-29T19:53:29.517Z,58.29
2022-11-29T19:55:31.410Z,58.04
2022-11-29T19:57:34.006Z,58.28
2022-11-29T19:59:36.019Z,58.16
2022-11-29T20:01:41.445Z,58.05
2022-11-29T20:03:45.333Z,58.52
2022-11-29T20:05:56.045Z,57.99
2022-11-29T20:07:57.959Z,57.52
2022-11-29T20:10:00.629Z,57.50
2022-11-29T20:12:04.320Z,57.72
2022-11-29T20:14:07.478Z,57.18
2022-11-29T20:16:12.583Z,57.58
2022-11-29T20:18:14.456Z,58.35
2022-11-29T20:20:19.792Z,57.87
2022-11-29T20:22:22.079Z,57.17
2022-11-29T20:24:24.011Z,58.00
2022-11-29T20:26:27.360Z,57.22
2022-11-29T20:28:30.447Z,57.26
2022-11-29T20:30:33.623Z,58.50
2022-11-29T20:32:36.062Z,57.92
2022-11-29T20:34:39.699Z,57.69
2022-11-29T20:37:01.239Z,57.63
2022-11-29T20:39:41.020Z,57.25
2022-11-29T20:41:51.234Z,57.43
2022-11-29T20:43:58.091Z,58.24
2022-11-29T20:46:00.151Z,58.16
2022-11-29T20:48:13.250Z,57.74
2022-11-29T20:50:27.189Z,57.53
2022-11-29T20:53:07.838Z,57.35
2022-11-29T20:55:10.089Z,57.77
2022-11-29T20:57:11.889Z,58.44
2022-11-29T20:59:14.155Z,58.16
2022-11-29T21:01:16.125Z,58.33
2022-11-29T21:03:19.710Z,58.00
2022-11-29T21:05:22.039Z,58.01
2022-11-29T21:07:23.906Z,58.11
2022-11-29T21:09:25.741Z,57.45
2022-11-29T21:11:28.499Z,58.69
2022-11-29T21:13:31.967Z,58.20
2022-11-29T21:15:34.296Z,58.21
2022-11-29T21:17:36.837Z,57.93
2022-11-29T21:19:40.732Z,57.60
2022-11-29T21:21:57.044Z,57.38
2022-11-29T21:24:10.163Z,57.26
2022-11-29T21:26:27.782Z,58.04
2022-11-29T21:28:42.580Z,57.04
2022-11-29T21:30:44.751Z,56.81
2022-11-29T21:32:47.477Z,57.57
2022-11-29T21:34:49.720Z,57.35
2022-11-29T21:36:57.113Z,56.85
2022-11-29T21:39:03.656Z,57.74
2022-11-29T21:41:06.948Z,56.65
2022-11-29T21:43:08.853Z,56.76
2022-11-29T21:45:15.313Z,56.71
2022-11-29T21:47:17.805Z,57.09
2022-11-29T21:49:19.621Z,57.30
2022-11-29T21:51:21.866Z,57.62
2022-11-29T21:53:23.803Z,56.80
2022-11-29T21:55:31.758Z,56.42
2022-11-29T21:57:34.622Z,56.94
2022-11-29T21:59:36.447Z,56.35
2022-11-29T22:01:38.367Z,56.45
2022-11-29T22:03:43.690Z,56.61
2022-11-29T22:05:45.570Z,56.46
2022-11-29T22:07:47.381Z,56.95
2022-11-29T22:09:49.585Z,56.55
2022-11-29T22:11:51.454Z,56.80
2022-11-29T22:14:16.524Z,56.39
2022-11-29T22:16:18.876Z,56.65
2022-11-29T22:18:20.811Z,56.42
2022-11-29T22:20:22.839Z,55.75
2022-11-29T22:22:27.964Z,56.46
2022-11-29T22:24:36.844Z,56.75
2022-11-29T22:26:39.189Z,56.90
2022-11-29T22:28:41.390Z,57.54
2022-11-29T22:30:43.196Z,57.37
2022-11-29T22:32:45.371Z,56.72
2022-11-29T22:34:47.476Z,56.70
2022-11-29T22:36:49.444Z,57.49
2022-11-29T22:38:51.639Z,57.16
2022-11-29T22:40:53.635Z,56.40
2022-11-29T22:42:55.450Z,56.64
2022-11-29T22:44:57.647Z,56.52
2022-11-29T22:46:59.530Z,56.39
2022-11-29T22:49:02.055Z,56.21
2022-11-29T22:51:21.494Z,56.72
2022-11-29T22:53:23.260Z,57.16
2022-11-29T22:55:25.166Z,57.21
2022-11-29T22:57:27.258Z,56.60
2022-11-29T22:59:29.665Z,57.74
2022-11-29T23:01:34.865Z,58.01
2022-11-29T23:03:38.737Z,57.10
2022-11-29T23:05:40.565Z,56.28
2022-11-29T23:07:43.281Z,56.16
2022-11-29T23:09:45.094Z,56.66
2022-11-29T23:11:52.010Z,56.82
2022-11-29T23:13:54.400Z,56.43
2022-11-29T23:15:56.166Z,56.35
2022-11-29T23:17:58.707Z,56.74
2022-11-29T23:20:00.525Z,56.55
2022-11-29T23:22:02.687Z,56.27
2022-11-29T23:24:05.233Z,56.59
2022-11-29T23:26:08.169Z,56.76
2022-11-29T23:28:10.290Z,57.64
2022-11-29T23:30:12.714Z,57.12
2022-11-29T23:32:14.680Z,56.67
2022-11-29T23:34:17.021Z,56.73
2022-11-29T23:36:19.095Z,57.16
2022-11-29T23:38:21.050Z,56.85
2022-11-29T23:40:23.166Z,56.87
2022-11-29T23:42:25.680Z,57.24
2022-11-29T23:44:27.478Z,57.29
2022-11-29T23:46:29.598Z,57.23
2022-11-29T23:48:31.407Z,56.67
2022-11-29T23:50:33.411Z,57.74
2022-11-29T23:52:35.533Z,57.73
2022-11-29T23:54:38.396Z,57.13
2022-11-29T23:56:40.565Z,57.24
2022-11-29T23:58:43.330Z,56.85
